Time;durP1;ratioP1;P1;durP2;ratioP2;P2;SDS_P1;SDS_P2;PMS_P1;PMS_P2;Temp;Humidity;BMP_temperature;BMP_pressure;BME280_temperature;BME280_humidity;BME280_pressure;Samples;Min_cycle;Max_cycle;Signal;HPM_P1;HPM_P2
2021/01/22 00:01:34;;;;;;;40.12;16.42;;;;;;;-0.94;78.90;100208.23;1678751;85;21227;-63
2021/01/22 00:04:02;;;;;;;35.50;14.50;;;;;;;-0.96;78.97;100215.95;1678510;85;21101;-62
2021/01/22 00:06:29;;;;;;;39.55;16.55;;;;;;;-0.97;79.02;100208.01;1678542;85;21104;-64
2021/01/22 00:08:57;;;;;;;40.23;16.85;;;;;;;-0.97;79.06;100213.39;1678492;85;21490;-63
2021/01/22 00:11:24;;;;;;;37.33;15.35;;;;;;;-0.97;79.12;100214.73;1678420;85;21263;-62
2021/01/22 00:13:52;;;;;;;41.48;17.62;;;;;;;-0.98;79.13;100204.47;1678483;85;21910;-63
2021/01/22 00:16:19;;;;;;;42.15;16.57;;;;;;;-0.99;79.11;100205.94;1678389;85;21098;-62
2021/01/22 00:18:46;;;;;;;42.33;17.82;;;;;;;-1.00;79.17;100201.55;1678382;84;21494;-63
2021/01/22 00:21:14;;;;;;;38.92;16.65;;;;;;;-1.00;79.26;100194.33;1678679;84;21658;-62
2021/01/22 00:23:42;;;;;;;42.00;17.02;;;;;;;-0.96;79.37;100198.95;1678709;84;21239;-63
2021/01/22 00:26:09;;;;;;;42.65;17.65;;;;;;;-0.93;79.35;100197.84;1678685;85;21077;-65
2021/01/22 00:28:38;;;;;;;41.63;16.07;;;;;;;-0.93;79.30;100188.44;1679181;85;21132;-62
2021/01/22 00:31:05;;;;;;;46.68;17.73;;;;;;;-0.95;79.25;100189.91;1679117;85;21393;-63
2021/01/22 00:33:33;;;;;;;47.85;17.75;;;;;;;-0.96;79.26;100186.37;1678386;85;21081;-64
2021/01/22 00:36:03;;;;;;;40.70;17.45;;;;;;;-0.97;79.32;100187.34;1678524;84;21108;-63
2021/01/22 00:38:30;;;;;;;44.00;16.12;;;;;;;-0.97;79.35;100186.00;1678467;85;21234;-62
2021/01/22 00:40:59;;;;;;;47.20;18.00;;;;;;;-0.98;79.40;100181.61;1678421;85;21237;-63
2021/01/22 00:43:28;;;;;;;41.18;16.95;;;;;;;-0.99;79.41;100173.18;1678407;85;21502;-63
2021/01/22 00:45:56;;;;;;;43.50;16.17;;;;;;;-0.97;79.50;100175.25;1678425;85;21085;-63
2021/01/22 00:48:23;;;;;;;44.15;17.12;;;;;;;-0.96;79.55;100174.27;1679542;84;21342;-63
2021/01/22 00:50:51;;;;;;;43.30;17.30;;;;;;;-0.93;79.56;100163.73;1700823;83;21923;-63
2021/01/22 00:53:19;;;;;;;41.37;16.33;;;;;;;-0.92;79.57;100161.91;1695344;84;21362;-62
2021/01/22 00:55:46;;;;;;;41.33;17.27;;;;;;;-0.96;79.51;100158.63;1695307;84;21125;-63
2021/01/22 00:58:16;;;;;;;42.95;16.95;;;;;;;-0.97;79.58;100161.80;1691393;84;21098;-64
2021/01/22 01:00:44;;;;;;;43.52;17.32;;;;;;;-0.94;79.70;100152.63;1695219;84;21097;-63
2021/01/22 01:03:13;;;;;;;39.45;15.98;;;;;;;-0.92;79.71;100149.80;1694073;84;21114;-63
2021/01/22 01:05:41;;;;;;;45.35;17.27;;;;;;;-0.92;79.69;100153.84;1695235;83;21070;-64
2021/01/22 01:08:08;;;;;;;45.78;18.42;;;;;;;-0.93;79.73;100152.98;1695300;84;21861;-64
2021/01/22 01:10:45;;;;;;;44.60;16.23;;;;;;;-0.93;79.74;100152.98;1690381;84;21113;-64
2021/01/22 01:13:17;;;;;;;43.80;17.37;;;;;;;-0.94;79.77;100145.05;1692364;84;21326;-62
2021/01/22 01:16:04;;;;;;;44.05;17.48;;;;;;;-0.98;79.84;100148.48;1695347;84;21145;-63
2021/01/22 01:18:32;;;;;;;43.48;16.30;;;;;;;-0.96;79.94;100150.55;1695365;84;21186;-64
2021/01/22 01:20:59;;;;;;;44.80;16.70;;;;;;;-0.99;79.94;100144.95;1695442;83;21133;-62
2021/01/22 01:23:27;;;;;;;47.05;19.05;;;;;;;-1.00;80.08;100142.39;1695176;84;21396;-63
2021/01/22 01:25:55;;;;;;;43.30;17.07;;;;;;;-0.99;80.21;100140.91;1695209;84;21061;-62
2021/01/22 01:28:23;;;;;;;43.60;18.00;;;;;;;-0.97;80.26;100132.23;1695264;84;21104;-63
2021/01/22 01:30:51;;;;;;;42.93;17.42;;;;;;;-0.96;80.31;100128.55;1695738;83;21134;-62
2021/01/22 01:33:18;;;;;;;48.75;17.55;;;;;;;-0.93;80.32;100128.78;1695392;83;21106;-63
2021/01/22 01:35:51;;;;;;;51.13;19.92;;;;;;;-0.92;80.36;100132.33;1695387;84;21106;-63
2021/01/22 01:38:16;;;;;;;45.63;17.45;;;;;;;-0.91;80.37;100129.50;1695212;84;21379;-63
2021/01/22 01:40:43;;;;;;;51.23;18.73;;;;;;;-0.90;80.39;100121.80;1695259;84;21121;-63
2021/01/22 01:43:11;;;;;;;49.33;18.73;;;;;;;-0.87;80.46;100119.34;1695566;84;21266;-63
2021/01/22 01:45:40;;;;;;;45.35;17.75;;;;;;;-0.86;80.46;100119.20;1695277;84;21109;-62
2021/01/22 01:48:10;;;;;;;46.85;18.77;;;;;;;-0.85;80.50;100119.56;1695218;84;21078;-63
2021/01/22 01:50:39;;;;;;;46.20;17.65;;;;;;;-0.84;80.52;100112.35;1695943;84;21133;-61
2021/01/22 01:53:07;;;;;;;45.40;17.98;;;;;;;-0.82;80.51;100105.86;1695252;83;21823;-63
2021/01/22 01:55:35;;;;;;;44.60;18.10;;;;;;;-0.81;80.50;100114.77;1695191;84;21097;-64
2021/01/22 01:58:04;;;;;;;45.05;17.60;;;;;;;-0.83;80.50;100106.84;1671701;84;21853;-63
2021/01/22 02:00:33;;;;;;;46.37;17.50;;;;;;;-0.83;80.57;100100.11;1695879;84;21331;-62
2021/01/22 02:03:01;;;;;;;44.67;18.07;;;;;;;-0.82;80.62;100099.62;1695773;84;21129;-62
2021/01/22 02:05:29;;;;;;;50.15;20.12;;;;;;;-0.83;80.64;100105.49;1695274;83;21320;-62
2021/01/22 02:07:56;;;;;;;56.53;19.70;;;;;;;-0.83;80.68;100102.80;1695213;83;21137;-61
2021/01/22 02:10:24;;;;;;;50.25;18.57;;;;;;;-0.81;80.70;100097.30;1695188;84;21196;-62
2021/01/22 02:12:51;;;;;;;50.52;20.30;;;;;;;-0.82;80.74;100097.78;1695147;84;21613;-62
2021/01/22 02:15:19;;;;;;;52.62;19.98;;;;;;;-0.82;80.75;100094.25;1669754;84;21305;-63
2021/01/22 02:17:46;;;;;;;52.17;19.57;;;;;;;-0.82;80.83;100092.90;1671089;85;21081;-62
2021/01/22 02:20:41;;;;;;;47.55;19.37;;;;;;;-0.80;80.92;100090.44;1700910;83;21479;-63
2021/01/22 02:23:08;;;;;;;47.43;17.00;;;;;;;-0.77;80.96;100103.62;1700698;84;21081;-61
2021/01/22 02:25:40;;;;;;;44.42;18.35;;;;;;;-0.77;80.90;100083.94;1671063;85;21876;-63
2021/01/22 02:28:09;;;;;;;51.63;19.05;;;;;;;-0.80;80.85;100103.03;1700492;84;21360;-63
2021/01/22 02:30:39;;;;;;;51.75;19.02;;;;;;;-0.81;80.97;100088.73;1686001;84;21855;-63
2021/01/22 02:33:06;;;;;;;40.12;15.30;;;;;;;-0.80;81.02;100094.96;1664368;85;21364;-62
2021/01/22 02:35:34;;;;;;;43.00;18.73;;;;;;;-0.77;81.09;100089.31;1686402;85;21161;-63
2021/01/22 02:38:02;;;;;;;44.83;17.27;;;;;;;-0.76;81.11;100085.64;1686774;85;21297;-63
2021/01/22 02:40:31;;;;;;;47.10;18.45;;;;;;;-0.74;81.15;100090.39;1686733;85;21812;-63
2021/01/22 02:42:58;;;;;;;46.85;18.45;;;;;;;-0.73;81.19;100087.58;1686748;85;21310;-63
2021/01/22 02:45:26;;;;;;;39.98;16.05;;;;;;;-0.71;81.17;100084.75;1686903;85;21335;-63
2021/01/22 02:47:54;;;;;;;42.20;17.67;;;;;;;-0.72;81.13;100092.45;1687039;85;21232;-63
2021/01/22 02:50:33;;;;;;;42.75;17.65;;;;;;;-0.70;81.19;100091.83;1684725;85;21196;-63
2021/01/22 02:53:04;;;;;;;43.02;17.77;;;;;;;-0.70;81.18;100079.73;1682998;85;21452;-63
2021/01/22 02:55:34;;;;;;;43.08;18.20;;;;;;;-0.69;81.25;100078.74;1682616;84;21513;-62
2021/01/22 02:58:26;;;;;;;41.68;16.62;;;;;;;-0.68;81.26;100071.03;1682845;85;21074;-62
2021/01/22 03:00:56;;;;;;;43.13;16.37;;;;;;;-0.69;81.21;100073.36;1682663;85;21450;-63
2021/01/22 03:03:38;;;;;;;44.83;18.37;;;;;;;-0.71;81.21;100070.80;1682682;85;21297;-63
2021/01/22 03:06:07;;;;;;;39.70;16.30;;;;;;;-0.73;81.29;100067.40;1682743;85;21094;-62
2021/01/22 03:08:35;;;;;;;48.23;17.90;;;;;;;-0.70;81.36;100071.66;1682664;85;21378;-63
2021/01/22 03:11:05;;;;;;;41.18;16.17;;;;;;;-0.69;81.42;100070.67;1682747;84;21240;-64
2021/01/22 03:13:32;;;;;;;40.25;15.05;;;;;;;-0.67;81.43;100053.91;1682614;85;21316;-62
2021/01/22 03:16:00;;;;;;;47.55;17.02;;;;;;;-0.68;81.38;100052.20;1683118;84;21099;-62
2021/01/22 03:18:28;;;;;;;42.70;17.82;;;;;;;-0.70;81.42;100052.33;1682182;85;21054;-62
2021/01/22 03:20:55;;;;;;;42.05;16.70;;;;;;;-0.70;81.46;100059.06;1680856;84;21330;-62
2021/01/22 03:23:23;;;;;;;44.90;16.12;;;;;;;-0.68;81.54;100054.40;1682683;84;21083;-62
2021/01/22 03:25:50;;;;;;;44.08;17.00;;;;;;;-0.64;81.60;100049.63;1689653;84;21254;-62
2021/01/22 03:28:18;;;;;;;44.58;15.10;;;;;;;-0.62;81.56;100049.00;1699901;84;21403;-62
2021/01/22 03:30:45;;;;;;;39.88;16.62;;;;;;;-0.62;81.56;100045.46;1699698;84;21110;-62
2021/01/22 03:33:14;;;;;;;42.20;16.85;;;;;;;-0.63;81.52;100053.17;1699584;84;21278;-62
2021/01/22 03:35:41;;;;;;;43.45;16.17;;;;;;;-0.65;81.52;100054.16;1699894;84;21221;-62
2021/01/22 03:38:09;;;;;;;44.53;17.02;;;;;;;-0.63;81.61;100055.86;1699936;84;21347;-62
2021/01/22 03:40:37;;;;;;;45.28;15.75;;;;;;;-0.63;81.60;100058.06;1724827;83;21826;-62
2021/01/22 03:43:04;;;;;;;43.42;16.27;;;;;;;-0.62;81.63;100058.91;1684187;84;21192;-64
2021/01/22 03:45:32;;;;;;;37.98;16.42;;;;;;;-0.63;81.66;100057.20;1688322;84;21106;-62
2021/01/22 03:47:59;;;;;;;42.20;15.85;;;;;;;-0.62;81.70;100054.88;1664990;86;21196;-63
2021/01/22 03:50:27;;;;;;;38.40;15.70;;;;;;;-0.63;81.69;100056.72;1685290;83;21196;-64
2021/01/22 03:52:54;;;;;;;39.18;15.75;;;;;;;-0.62;81.74;100054.88;1667770;84;21730;-62
2021/01/22 03:55:21;;;;;;;40.15;15.53;;;;;;;-0.62;81.77;100049.50;1668121;86;21110;-63
2021/01/22 03:57:49;;;;;;;45.55;17.80;;;;;;;-0.62;81.80;100034.70;1683323;83;21314;-63
2021/01/22 04:00:18;;;;;;;42.08;16.70;;;;;;;-0.61;81.91;100043.13;1676133;85;21117;-64
2021/01/22 04:02:45;;;;;;;44.65;16.45;;;;;;;-0.58;81.95;100048.23;1675981;85;21377;-62
2021/01/22 04:05:13;;;;;;;37.93;14.80;;;;;;;-0.55;81.95;100051.52;1675961;85;21192;-62
2021/01/22 04:07:41;;;;;;;42.27;17.07;;;;;;;-0.53;81.94;100047.34;1676012;85;21122;-64
2021/01/22 04:10:10;;;;;;;41.48;15.70;;;;;;;-0.54;81.95;100057.25;1676101;85;21353;-62
2021/01/22 04:12:37;;;;;;;38.35;15.32;;;;;;;-0.52;82.02;100052.58;1676069;85;21389;-62
2021/01/22 04:15:06;;;;;;;42.95;17.62;;;;;;;-0.51;81.98;100046.22;1675932;85;21384;-63
2021/01/22 04:17:33;;;;;;;37.45;15.10;;;;;;;-0.50;81.99;100051.95;1676054;85;21197;-64
2021/01/22 04:20:01;;;;;;;46.95;19.57;;;;;;;-0.47;82.02;100047.65;1676032;85;21433;-63
2021/01/22 04:22:29;;;;;;;41.73;16.27;;;;;;;-0.46;81.99;100039.94;1676120;84;21129;-63
2021/01/22 04:24:57;;;;;;;38.35;15.25;;;;;;;-0.45;82.01;100044.33;1675876;85;21397;-63
2021/01/22 04:27:24;;;;;;;40.73;16.48;;;;;;;-0.44;81.95;100043.34;1675940;85;21776;-63
2021/01/22 04:29:51;;;;;;;41.10;17.25;;;;;;;-0.44;81.92;100040.64;1676000;85;21494;-62
2021/01/22 04:32:19;;;;;;;42.83;16.42;;;;;;;-0.44;81.93;100043.34;1675999;85;21826;-62
2021/01/22 04:34:46;;;;;;;43.40;17.77;;;;;;;-0.43;81.97;100035.62;1675858;85;22031;-63
2021/01/22 04:37:14;;;;;;;41.48;15.95;;;;;;;-0.41;81.99;100039.52;1676014;85;21408;-62
2021/01/22 04:39:41;;;;;;;42.85;16.52;;;;;;;-0.39;82.03;100031.67;1676035;85;21089;-63
2021/01/22 04:42:09;;;;;;;44.20;17.15;;;;;;;-0.38;82.05;100037.41;1676051;85;21487;-62
2021/01/22 04:44:37;;;;;;;45.17;17.05;;;;;;;-0.35;81.99;100035.79;1675946;85;21356;-63
2021/01/22 04:47:07;;;;;;;41.33;16.10;;;;;;;-0.32;81.98;100035.52;1676192;85;21390;-63
2021/01/22 04:49:36;;;;;;;45.63;17.42;;;;;;;-0.32;81.90;100040.05;1676018;85;21626;-62
2021/01/22 04:52:04;;;;;;;42.78;17.92;;;;;;;-0.33;81.88;100035.66;1672174;84;21308;-63
2021/01/22 04:54:39;;;;;;;42.93;17.37;;;;;;;-0.34;81.87;100037.49;1683779;85;21649;-63
2021/01/22 04:57:06;;;;;;;41.75;16.17;;;;;;;-0.35;81.87;100033.09;1672225;85;21485;-63
2021/01/22 04:59:48;;;;;;;42.45;15.88;;;;;;;-0.36;81.89;100029.20;1654624;86;21431;-62
2021/01/22 05:02:16;;;;;;;43.70;17.35;;;;;;;-0.36;81.96;100031.39;1672255;85;21105;-63
2021/01/22 05:04:44;;;;;;;43.98;17.40;;;;;;;-0.34;81.96;100030.77;1654624;86;21303;-62
2021/01/22 05:07:12;;;;;;;46.28;18.65;;;;;;;-0.33;81.97;100032.47;1663599;85;21333;-63
2021/01/22 05:09:39;;;;;;;40.73;16.80;;;;;;;-0.30;82.02;100034.53;1650589;87;21415;-64
2021/01/22 05:12:08;;;;;;;45.58;18.12;;;;;;;-0.27;82.06;100030.22;1647983;85;21312;-61
2021/01/22 05:14:36;;;;;;;41.50;17.60;;;;;;;-0.24;82.03;100036.17;1648076;85;21257;-64
2021/01/22 05:17:09;;;;;;;41.28;17.17;;;;;;;-0.22;82.04;100035.55;1648405;85;21094;-62
2021/01/22 05:19:43;;;;;;;40.58;17.82;;;;;;;-0.23;82.00;100039.22;1648459;86;21101;-63
2021/01/22 05:22:18;;;;;;;42.88;16.90;;;;;;;-0.22;81.96;100040.92;1648450;86;21376;-63
2021/01/22 05:24:45;;;;;;;42.38;17.37;;;;;;;-0.24;81.92;100035.32;1648569;87;21257;-64
2021/01/22 05:27:14;;;;;;;44.10;17.95;;;;;;;-0.24;81.96;100036.67;1648459;85;21304;-62
2021/01/22 05:29:43;;;;;;;40.80;18.02;;;;;;;-0.23;81.96;100036.53;1648512;85;21326;-64
2021/01/22 05:32:26;;;;;;;44.38;18.75;;;;;;;-0.21;81.97;100040.43;1648661;86;21077;-63
2021/01/22 05:34:54;;;;;;;46.45;17.82;;;;;;;-0.19;82.03;100032.57;1648405;86;21369;-63
2021/01/22 05:37:22;;;;;;;44.45;17.52;;;;;;;-0.16;82.02;100044.91;1648375;85;21367;-63
2021/01/22 05:40:09;;;;;;;44.15;17.57;;;;;;;-0.17;81.97;100035.98;1648206;85;21313;-63
2021/01/22 05:42:54;;;;;;;45.43;17.05;;;;;;;-0.17;81.92;100039.17;1620259;87;21694;-62
2021/01/22 05:45:40;;;;;;;41.68;17.35;;;;;;;-0.19;81.87;100043.84;1620095;87;21110;-62
2021/01/22 05:48:23;;;;;;;41.13;16.67;;;;;;;-0.19;81.99;100040.66;1620114;87;21212;-63
2021/01/22 05:50:59;;;;;;;57.93;25.12;;;;;;;-0.16;82.03;100042.22;1632132;86;21135;-63
2021/01/22 05:53:27;;;;;;;42.27;18.48;;;;;;;-0.16;82.02;100033.64;1660835;86;21315;-64
2021/01/22 05:56:08;;;;;;;44.70;18.55;;;;;;;-0.15;81.98;100036.69;1660818;86;21744;-63
2021/01/22 05:58:37;;;;;;;41.98;16.60;;;;;;;-0.15;81.97;100037.19;1660860;85;21245;-63
2021/01/22 06:01:10;;;;;;;45.55;17.67;;;;;;;-0.15;81.96;100038.04;1660832;85;21249;-63
2021/01/22 06:03:39;;;;;;;45.43;17.73;;;;;;;-0.15;81.96;100040.73;1660501;86;21117;-63
2021/01/22 06:06:08;;;;;;;51.08;19.98;;;;;;;-0.13;81.96;100051.36;1663412;86;21373;-64
2021/01/22 06:08:53;;;;;;;44.23;17.27;;;;;;;-0.14;81.94;100051.00;1661021;86;21372;-63
2021/01/22 06:11:27;;;;;;;47.05;19.67;;;;;;;-0.16;81.98;100050.29;1660310;86;21935;-63
2021/01/22 06:14:04;;;;;;;40.25;15.05;;;;;;;-0.15;82.00;100053.34;1661477;86;21412;-62
2021/01/22 06:16:32;;;;;;;42.70;18.70;;;;;;;-0.14;82.04;100053.70;1660663;85;21474;-62
2021/01/22 06:19:06;;;;;;;48.87;18.00;;;;;;;-0.14;82.07;100046.97;1660819;86;21110;-63
2021/01/22 06:21:39;;;;;;;44.83;17.23;;;;;;;-0.13;82.15;100048.67;1660886;86;21364;-62
2021/01/22 06:24:08;;;;;;;46.13;18.42;;;;;;;-0.12;82.15;100042.30;1652650;86;21160;-65
2021/01/22 06:26:36;;;;;;;46.70;20.12;;;;;;;-0.12;82.12;100046.34;1661039;86;21433;-64
2021/01/22 06:29:07;;;;;;;50.30;20.40;;;;;;;-0.12;82.16;100036.91;1661220;85;21885;-62
2021/01/22 06:31:35;;;;;;;45.83;19.10;;;;;;;-0.11;82.25;100039.47;1660793;85;21363;-63
2021/01/22 06:34:02;;;;;;;49.25;18.52;;;;;;;-0.08;82.29;100028.41;1636772;86;21301;-62
2021/01/22 06:36:31;;;;;;;41.85;17.40;;;;;;;-0.05;82.26;100034.88;1660661;85;21384;-63
2021/01/22 06:38:58;;;;;;;47.00;20.10;;;;;;;-0.02;82.21;100037.78;1660747;86;21089;-62
2021/01/22 06:41:27;;;;;;;44.65;17.42;;;;;;;-0.03;82.17;100035.58;1660823;86;21343;-63
2021/01/22 06:43:59;;;;;;;38.85;16.70;;;;;;;0.01;82.20;100038.03;1661174;86;21379;-64
2021/01/22 06:46:29;;;;;;;46.77;20.23;;;;;;;0.04;82.16;100039.09;1661286;85;21197;-63
2021/01/22 06:49:04;;;;;;;47.65;20.85;;;;;;;0.04;82.09;100035.05;1661230;86;21363;-63
2021/01/22 06:51:36;;;;;;;54.42;21.00;;;;;;;0.04;82.08;100025.62;1661022;86;21828;-63
2021/01/22 06:54:21;;;;;;;38.20;15.93;;;;;;;0.06;82.13;100023.65;1661076;86;21101;-64
2021/01/22 06:57:02;;;;;;;43.68;19.05;;;;;;;0.07;82.12;100031.59;1660908;86;21121;-64
2021/01/22 06:59:40;;;;;;;45.73;18.85;;;;;;;0.11;82.09;100026.77;1661142;86;21304;-62
2021/01/22 07:02:01;;;;;;;44.30;20.02;;;;;;;0.13;82.06;100025.64;1659063;86;21205;-64
2021/01/22 07:04:35;;;;;;;47.08;19.15;;;;;;;0.14;81.99;100030.03;1636178;86;21255;-62
2021/01/22 07:07:05;;;;;;;44.77;18.40;;;;;;;0.14;81.93;100023.30;1661132;85;21857;-63
2021/01/22 07:09:49;;;;;;;48.75;19.20;;;;;;;0.15;81.92;100022.31;1661203;86;21084;-63
2021/01/22 07:12:42;;;;;;;55.95;22.42;;;;;;;0.18;81.95;100034.16;1661016;85;21455;-64
2021/01/22 07:15:26;;;;;;;48.10;20.02;;;;;;;0.21;81.86;100023.09;1661169;86;21296;-62
2021/01/22 07:18:01;;;;;;;47.33;19.40;;;;;;;0.21;81.83;100020.41;1660921;85;21094;-63
2021/01/22 07:20:29;;;;;;;48.08;18.07;;;;;;;0.24;81.79;100021.47;1688666;84;21098;-63
2021/01/22 07:22:59;;;;;;;48.05;19.98;;;;;;;0.27;81.81;100017.14;1690195;85;21157;-63
2021/01/22 07:25:38;;;;;;;41.08;18.70;;;;;;;0.31;81.76;100019.91;1690350;85;21109;-62
2021/01/22 07:28:23;;;;;;;47.00;18.35;;;;;;;0.36;81.75;100025.37;1690196;84;21134;-64
2021/01/22 07:30:51;;;;;;;45.35;18.55;;;;;;;0.38;81.69;100022.03;1690468;84;21189;-64
2021/01/22 07:33:35;;;;;;;47.62;19.77;;;;;;;0.42;81.62;100021.61;1690565;85;21362;-63
2021/01/22 07:36:09;;;;;;;45.12;19.40;;;;;;;0.46;81.55;100026.22;1690432;85;21216;-64
2021/01/22 07:38:39;;;;;;;40.48;18.00;;;;;;;0.51;81.49;100030.69;1690395;84;21069;-64
2021/01/22 07:41:08;;;;;;;37.70;16.17;;;;;;;0.52;81.44;100028.34;1690468;85;21296;-63
2021/01/22 07:43:36;;;;;;;35.95;14.83;;;;;;;0.56;81.40;100030.61;1690421;84;21457;-63
2021/01/22 07:46:10;;;;;;;40.92;18.12;;;;;;;0.59;81.22;100034.86;1690102;84;21273;-63
2021/01/22 07:48:40;;;;;;;44.08;18.35;;;;;;;0.60;81.12;100016.34;1690389;84;21364;-63
2021/01/22 07:51:32;;;;;;;43.78;19.17;;;;;;;0.62;81.08;100024.64;1690345;85;21275;-63
2021/01/22 07:54:00;;;;;;;35.73;16.87;;;;;;;0.70;81.10;100025.80;1690456;84;21332;-62
2021/01/22 07:56:38;;;;;;;47.65;20.70;;;;;;;0.73;80.91;100018.78;1690278;85;21325;-64
2021/01/22 07:59:07;;;;;;;88.67;34.73;;;;;;;0.75;80.84;100024.38;1690339;85;21478;-62
2021/01/22 08:01:36;;;;;;;67.47;27.20;;;;;;;0.80;80.79;100028.84;1690356;85;21097;-64
2021/01/22 08:04:05;;;;;;;65.20;28.02;;;;;;;0.86;80.76;100031.45;1690352;84;21184;-63
2021/01/22 08:06:46;;;;;;;58.00;25.00;;;;;;;0.90;80.69;100026.98;1690469;84;21174;-64
2021/01/22 08:09:13;;;;;;;54.30;22.25;;;;;;;0.95;80.63;100026.04;1690327;85;21097;-64
2021/01/22 08:11:41;;;;;;;66.97;27.37;;;;;;;1.02;80.53;100026.80;1690377;85;21304;-64
2021/01/22 08:14:09;;;;;;;50.75;23.02;;;;;;;1.06;80.38;100033.11;1689478;84;21188;-64
2021/01/22 08:16:37;;;;;;;61.80;28.17;;;;;;;1.11;80.27;100020.53;1690161;84;21346;-65
2021/01/22 08:19:05;;;;;;;84.07;35.58;;;;;;;1.16;80.18;100022.30;1693690;83;21388;-65
2021/01/22 08:21:38;;;;;;;61.02;24.35;;;;;;;1.22;80.05;100021.70;1692128;82;21197;-64
2021/01/22 08:24:09;;;;;;;62.62;24.75;;;;;;;1.25;79.94;100014.16;1682941;84;21097;-64
2021/01/22 08:26:39;;;;;;;60.30;25.17;;;;;;;1.32;79.72;100019.85;1690230;84;21502;-65
2021/01/22 08:29:09;;;;;;;53.20;24.00;;;;;;;1.35;79.56;100012.81;1665167;85;21143;-65
2021/01/22 08:31:40;;;;;;;48.33;22.80;;;;;;;1.39;79.46;100018.27;1665221;85;21377;-63
2021/01/22 08:34:07;;;;;;;48.25;21.75;;;;;;;1.43;79.32;100025.06;1698501;83;21442;-65
2021/01/22 08:36:35;;;;;;;54.40;23.12;;;;;;;1.44;79.12;100021.36;1698424;84;21108;-64
2021/01/22 08:39:03;;;;;;;45.95;20.08;;;;;;;1.45;78.98;100020.37;1693016;84;21400;-64
2021/01/22 08:41:30;;;;;;;42.78;19.73;;;;;;;1.49;78.82;100021.77;1692620;84;21082;-65
2021/01/22 08:43:58;;;;;;;41.00;19.37;;;;;;;1.53;78.68;100016.42;1693034;84;21321;-64
2021/01/22 08:46:26;;;;;;;47.30;22.10;;;;;;;1.56;78.54;100020.67;1692870;84;21338;-66
2021/01/22 08:48:53;;;;;;;43.33;20.82;;;;;;;1.56;78.47;100016.13;1665334;84;21383;-63
2021/01/22 08:51:28;;;;;;;44.13;19.85;;;;;;;1.60;78.42;100013.97;1687169;85;21498;-64
2021/01/22 08:53:57;;;;;;;54.75;23.60;;;;;;;1.63;78.29;100012.32;1657043;85;21088;-70
2021/01/22 08:56:24;;;;;;;51.48;23.27;;;;;;;1.65;78.20;100000.02;1645720;86;21749;-65
2021/01/22 08:59:10;;;;;;;61.37;28.32;;;;;;;1.66;78.12;99997.17;1650632;86;21094;-67
2021/01/22 09:01:56;;;;;;;50.50;23.52;;;;;;;1.70;78.09;99997.72;1638838;86;21074;-65
2021/01/22 09:04:34;;;;;;;72.82;31.97;;;;;;;1.74;78.01;99992.37;1646799;85;21080;-65
2021/01/22 09:07:05;;;;;;;100.40;39.25;;;;;;;1.77;77.90;99998.31;1663432;85;21126;-66
2021/01/22 09:09:38;;;;;;;53.73;24.02;;;;;;;1.79;77.69;99991.41;1672231;84;21896;-66
2021/01/22 09:12:14;;;;;;;46.48;21.93;;;;;;;1.81;77.54;99988.05;1662928;84;21849;-67
2021/01/22 09:15:01;;;;;;;33.83;14.75;;;;;;;1.85;77.53;99985.40;1641611;86;21321;-68
2021/01/22 09:17:50;;;;;;;43.13;20.02;;;;;;;1.87;77.38;99988.80;1644059;85;21325;-69
2021/01/22 09:20:20;;;;;;;45.92;21.62;;;;;;;1.88;77.29;99990.00;1644225;87;21129;-67
2021/01/22 09:22:50;;;;;;;41.30;18.77;;;;;;;1.91;77.21;99987.49;1644055;86;21459;-67
2021/01/22 09:25:19;;;;;;;56.42;24.85;;;;;;;1.95;77.14;99983.52;1645963;86;21319;-69
2021/01/22 09:27:47;;;;;;;44.18;19.10;;;;;;;1.98;76.98;99979.16;1662728;86;21315;-67
2021/01/22 09:30:17;;;;;;;40.80;20.10;;;;;;;2.00;76.78;99979.85;1650514;85;21050;-65
2021/01/22 09:32:51;;;;;;;45.40;20.92;;;;;;;2.00;76.73;99966.84;1641579;86;21302;-67
2021/01/22 09:35:20;;;;;;;48.48;23.55;;;;;;;2.03;76.73;99968.73;1641827;86;21320;-67
2021/01/22 09:37:48;;;;;;;45.38;20.90;;;;;;;2.07;76.67;99963.37;1641475;87;21109;-65
2021/01/22 09:40:16;;;;;;;39.13;18.02;;;;;;;2.12;76.53;99967.81;1641363;87;21098;-67
2021/01/22 09:42:43;;;;;;;41.15;19.37;;;;;;;2.15;76.38;99963.95;1641363;87;21754;-69
2021/01/22 09:45:12;;;;;;;45.17;20.75;;;;;;;2.18;76.23;99960.44;1641373;86;21813;-67
2021/01/22 09:47:40;;;;;;;47.10;20.70;;;;;;;2.22;76.16;99958.28;1647567;86;21339;-67
2021/01/22 09:50:09;;;;;;;40.70;19.77;;;;;;;2.27;76.08;99959.16;1662668;85;21831;-66
2021/01/22 09:52:38;;;;;;;40.08;18.80;;;;;;;2.32;76.02;99951.44;1673133;84;21757;-67
2021/01/22 09:55:08;;;;;;;50.88;22.75;;;;;;;2.38;75.91;99958.92;1686462;85;21338;-65
2021/01/22 09:57:35;;;;;;;43.13;20.72;;;;;;;2.43;75.77;99946.63;1686618;85;21757;-70
2021/01/22 10:00:07;;;;;;;38.65;17.87;;;;;;;2.50;75.62;99946.85;1676289;85;21228;-66
2021/01/22 10:02:35;;;;;;;40.98;18.70;;;;;;;2.55;75.39;99945.88;1660605;85;21114;-66
2021/01/22 10:05:05;;;;;;;40.15;19.92;;;;;;;2.61;75.09;99949.84;1658612;85;21241;-67
2021/01/22 10:07:33;;;;;;;40.48;19.67;;;;;;;2.68;74.98;99942.79;1660353;86;21293;-65
2021/01/22 10:10:01;;;;;;;41.02;20.40;;;;;;;2.73;74.81;99937.25;1660589;85;21379;-72
2021/01/22 10:12:29;;;;;;;40.75;18.62;;;;;;;2.82;74.66;99941.70;1662776;85;21351;-72
2021/01/22 10:14:56;;;;;;;39.80;18.67;;;;;;;2.87;74.41;99935.81;1660183;86;21740;-66
2021/01/22 10:17:23;;;;;;;38.55;17.23;;;;;;;2.92;74.25;99928.06;1660305;86;21371;-69
2021/01/22 10:19:51;;;;;;;36.58;17.42;;;;;;;2.99;74.04;99925.56;1660285;85;21341;-65
2021/01/22 10:22:18;;;;;;;41.73;19.12;;;;;;;3.05;73.75;99920.36;1660892;85;21964;-67
2021/01/22 10:24:46;;;;;;;43.20;20.45;;;;;;;3.08;73.51;99927.30;1656327;86;21379;-67
2021/01/22 10:27:13;;;;;;;38.90;18.17;;;;;;;3.10;73.45;99922.08;1660376;86;21332;-70
2021/01/22 10:29:41;;;;;;;41.58;19.67;;;;;;;3.14;73.31;99918.03;1660272;86;21125;-72
2021/01/22 10:32:10;;;;;;;36.90;18.40;;;;;;;3.18;73.19;99922.62;1660353;86;21160;-65
2021/01/22 10:34:39;;;;;;;34.95;15.43;;;;;;;3.18;72.99;99919.41;1660435;86;21058;-66
2021/01/22 10:37:07;;;;;;;35.98;16.77;;;;;;;3.19;72.80;99916.20;1659577;85;21197;-71
2021/01/22 10:39:34;;;;;;;38.17;18.10;;;;;;;3.22;72.56;99909.10;1682354;85;21142;-69
2021/01/22 10:42:02;;;;;;;37.20;17.75;;;;;;;3.27;72.47;99903.23;1660507;85;21360;-64
2021/01/22 10:44:30;;;;;;;35.68;18.32;;;;;;;3.33;72.38;99901.22;1660279;85;21210;-67
2021/01/22 10:46:57;;;;;;;40.30;18.32;;;;;;;3.37;72.21;99885.84;1660002;85;21069;-67
2021/01/22 10:49:25;;;;;;;36.55;18.90;;;;;;;3.44;72.07;99888.23;1678040;85;21136;-65
2021/01/22 10:51:52;;;;;;;33.63;16.62;;;;;;;3.47;71.94;99885.20;1686968;85;21457;-68
2021/01/22 10:54:20;;;;;;;34.63;15.80;;;;;;;3.48;71.73;99879.27;1686582;85;21517;-65
2021/01/22 10:56:47;;;;;;;35.92;16.97;;;;;;;3.48;71.58;99872.50;1701122;83;21037;-70
2021/01/22 10:59:14;;;;;;;35.15;16.90;;;;;;;3.48;71.46;99868.44;1654947;84;21419;-70
2021/01/22 11:01:42;;;;;;;37.53;18.20;;;;;;;3.48;71.45;99869.80;1649233;84;21334;-70
2021/01/22 11:04:11;;;;;;;38.28;18.02;;;;;;;3.54;71.36;99864.22;1655880;86;21100;-65
2021/01/22 11:06:39;;;;;;;34.35;17.77;;;;;;;3.57;71.12;99862.53;1648850;86;21116;-66
2021/01/22 11:09:07;;;;;;;32.10;17.12;;;;;;;3.58;71.00;99859.66;1639933;86;21079;-65
2021/01/22 11:11:34;;;;;;;36.65;18.15;;;;;;;3.64;70.85;99865.77;1662301;84;21113;-71
2021/01/22 11:14:02;;;;;;;40.43;19.23;;;;;;;3.71;70.78;99849.69;1673636;84;21072;-67
2021/01/22 11:16:30;;;;;;;35.63;16.75;;;;;;;3.80;70.67;99850.89;1669288;84;21080;-66
2021/01/22 11:18:57;;;;;;;39.75;19.50;;;;;;;3.89;70.44;99843.61;1677218;84;21311;-65
2021/01/22 11:21:25;;;;;;;37.65;17.75;;;;;;;3.95;70.18;99842.13;1683745;83;21113;-65
2021/01/22 11:23:52;;;;;;;36.75;18.52;;;;;;;4.01;70.03;99839.58;1688264;84;21816;-65
2021/01/22 11:26:20;;;;;;;37.63;17.52;;;;;;;4.08;69.87;99839.75;1665481;84;21191;-64
2021/01/22 11:28:47;;;;;;;34.10;18.37;;;;;;;4.16;69.58;99834.83;1666717;84;21346;-64